Torrelavega, Spain
Current Conditions -  °F | °C
As of 12:00 PM on Wednesday 22 Oct 2014 (Local Time) from LEXJ Reporting Station
Scattered Clouds Scattered Clouds  
Wind Chill: 64°   Ceiling: Unl
Heat Index: 64°   Visibility: 6mi
Dew Point: 50°   Wind: 5mph
Humidity: 59%   Direction: 120°ESE
Pressure: 30.48"   Gusts: NA
Location:  43.35°N, 4.05°W
Report Text: LEXJ 221000Z 12004KT 070V150 9999 FEW032 SCT045 18/10 Q1032
Loading
Personal Weather Stations






























Interactive Weather Map
Tropical Storm Tracking
New forecast layout! Learn more

10-Day Weather Forecast

Advertisements
Track Severe Weather on mobile